createdAt,value
2023-02-20T00:00:51.262Z,6.43
2023-02-20T00:03:18.918Z,6.31
2023-02-20T00:05:46.441Z,6.34
2023-02-20T00:08:14.167Z,6.32
2023-02-20T00:10:41.659Z,6.34
2023-02-20T00:13:09.160Z,6.43
2023-02-20T00:15:38.007Z,6.32
2023-02-20T00:18:06.918Z,6.38
2023-02-20T00:23:37.381Z,6.34
2023-02-20T00:26:05.139Z,6.34
2023-02-20T00:28:32.555Z,6.14
2023-02-20T00:31:02.131Z,6.21
2023-02-20T00:33:31.178Z,6.10
2023-02-20T00:35:58.616Z,6.41
2023-02-20T00:38:26.339Z,6.37
2023-02-20T00:41:08.085Z,6.52
2023-02-20T00:43:37.241Z,6.52
2023-02-20T00:49:04.192Z,6.48
2023-02-20T00:51:46.824Z,6.58
2023-02-20T00:54:14.453Z,6.41
2023-02-20T00:56:42.060Z,6.44
2023-02-20T00:59:09.755Z,6.33
2023-02-20T01:01:37.337Z,6.32
2023-02-20T01:04:06.986Z,6.32
2023-02-20T01:06:35.400Z,6.17
2023-02-20T01:09:03.007Z,6.00
2023-02-20T01:14:29.602Z,6.02
2023-02-20T01:16:57.106Z,5.99
2023-02-20T01:19:26.332Z,6.10
2023-02-20T01:21:53.834Z,6.08
2023-02-20T01:24:21.740Z,5.98
2023-02-20T01:26:50.257Z,5.96
2023-02-20T01:29:18.609Z,6.03
2023-02-20T01:31:50.299Z,6.06
2023-02-20T01:34:18.769Z,6.10
2023-02-20T01:36:48.970Z,6.33
2023-02-20T01:39:19.271Z,6.14
2023-02-20T01:41:48.215Z,6.19
2023-02-20T01:47:22.390Z,6.10
2023-02-20T01:49:51.925Z,6.23
2023-02-20T01:52:25.624Z,6.13
2023-02-20T01:54:56.174Z,6.01
2023-02-20T02:00:16.750Z,6.35
2023-02-20T02:02:47.442Z,6.05
2023-02-20T02:05:15.276Z,6.03
2023-02-20T02:07:44.893Z,6.15
2023-02-20T02:10:14.936Z,6.13
2023-02-20T02:12:43.560Z,6.15
2023-02-20T02:15:15.088Z,6.08
2023-02-20T02:21:26.199Z,6.16
2023-02-20T02:27:25.287Z,6.25
2023-02-20T02:32:58.463Z,5.96
2023-02-20T02:35:48.556Z,6.26
2023-02-20T02:38:22.278Z,6.28
2023-02-20T02:40:54.021Z,6.02
2023-02-20T02:43:28.811Z,6.17
2023-02-20T02:45:57.710Z,6.13
2023-02-20T02:48:29.515Z,6.33
2023-02-20T02:54:08.704Z,6.39
2023-02-20T02:56:37.062Z,6.48
2023-02-20T02:59:05.231Z,6.30
2023-02-20T03:01:35.808Z,6.32
2023-02-20T03:04:05.281Z,6.23
2023-02-20T03:06:36.020Z,6.45
2023-02-20T03:09:08.073Z,6.41
2023-02-20T03:14:58.907Z,6.25
2023-02-20T03:20:29.566Z,6.05
2023-02-20T03:22:59.956Z,6.04
2023-02-20T03:25:35.121Z,5.78
2023-02-20T03:28:04.489Z,5.99
2023-02-20T03:30:36.280Z,5.94
2023-02-20T03:33:27.154Z,5.80
2023-02-20T03:36:13.060Z,6.02
2023-02-20T03:41:52.067Z,5.88
2023-02-20T03:44:21.745Z,5.98
2023-02-20T03:46:50.174Z,6.01
2023-02-20T03:52:20.631Z,6.02
2023-02-20T03:54:48.942Z,6.02
2023-02-20T04:00:02.136Z,6.15
2023-02-20T04:05:37.307Z,5.99
2023-02-20T04:11:09.312Z,5.92
2023-02-20T04:13:37.904Z,5.89
2023-02-20T04:16:07.489Z,5.97
2023-02-20T04:18:35.754Z,6.04
2023-02-20T04:21:07.265Z,6.12
2023-02-20T04:23:41.755Z,6.13
2023-02-20T04:26:33.503Z,6.13
2023-02-20T04:29:01.647Z,6.09
2023-02-20T04:31:30.715Z,6.11
2023-02-20T04:33:58.370Z,6.11
2023-02-20T04:36:43.022Z,6.11
2023-02-20T04:39:11.065Z,5.98
2023-02-20T04:44:36.596Z,6.08
2023-02-20T04:47:09.529Z,6.03
2023-02-20T04:49:37.961Z,6.08
2023-02-20T04:52:07.623Z,5.92
2023-02-20T04:54:36.308Z,6.04
2023-02-20T04:57:05.199Z,6.08
2023-02-20T05:02:33.696Z,5.93
2023-02-20T05:05:01.203Z,5.89
2023-02-20T05:10:18.232Z,6.16
2023-02-20T05:12:45.950Z,6.15
2023-02-20T05:15:14.106Z,6.18
2023-02-20T05:17:43.067Z,6.03
2023-02-20T05:20:11.826Z,6.10
2023-02-20T05:22:38.344Z,6.09
2023-02-20T05:25:06.728Z,6.06
2023-02-20T05:27:34.473Z,6.05
2023-02-20T05:30:02.294Z,6.09
2023-02-20T05:32:31.370Z,6.00
2023-02-20T05:37:54.791Z,6.03
2023-02-20T05:40:22.380Z,6.26
2023-02-20T05:42:49.897Z,6.17
2023-02-20T05:45:17.478Z,6.11
2023-02-20T05:47:45.055Z,6.24
2023-02-20T05:53:02.675Z,6.08
2023-02-20T05:55:30.807Z,6.14
2023-02-20T05:57:58.279Z,6.03
2023-02-20T06:03:28.337Z,6.14
2023-02-20T06:05:56.311Z,6.07
2023-02-20T06:08:25.123Z,6.10
2023-02-20T06:10:52.593Z,6.13
2023-02-20T06:13:20.032Z,6.05
2023-02-20T06:15:47.714Z,5.97
2023-02-20T06:18:15.156Z,5.97
2023-02-20T06:20:42.579Z,5.98
2023-02-20T06:23:10.039Z,6.01
2023-02-20T06:25:38.766Z,5.96
2023-02-20T06:28:06.321Z,5.81
2023-02-20T06:30:33.849Z,5.92
2023-02-20T06:33:01.482Z,5.94
2023-02-20T06:35:29.169Z,6.02
2023-02-20T06:40:46.743Z,6.08
2023-02-20T06:43:14.198Z,6.18
2023-02-20T06:45:41.690Z,6.25
2023-02-20T06:48:09.291Z,6.26
2023-02-20T06:50:36.796Z,6.28
2023-02-20T06:53:04.439Z,6.48
2023-02-20T06:55:32.691Z,6.45
2023-02-20T06:58:37.285Z,6.57
2023-02-20T07:01:06.139Z,6.63
2023-02-20T07:06:37.049Z,6.47
2023-02-20T07:09:04.809Z,6.63
2023-02-20T07:11:35.477Z,6.67
2023-02-20T07:14:03.011Z,6.58
2023-02-20T07:19:34.830Z,6.55
2023-02-20T07:22:03.133Z,6.67
2023-02-20T07:24:30.648Z,6.73
2023-02-20T07:26:58.058Z,6.63
2023-02-20T07:32:24.681Z,6.62
2023-02-20T07:35:03.707Z,6.61
2023-02-20T07:37:33.536Z,6.65
2023-02-20T07:40:00.962Z,6.68
2023-02-20T07:42:28.355Z,6.61
2023-02-20T07:45:14.700Z,6.58
2023-02-20T07:47:42.103Z,6.48
2023-02-20T07:50:15.127Z,6.55
2023-02-20T07:52:42.594Z,6.47
2023-02-20T07:55:11.094Z,6.46
2023-02-20T07:57:39.253Z,6.44
2023-02-20T08:03:03.522Z,6.46
2023-02-20T08:05:40.136Z,6.56
2023-02-20T08:08:14.751Z,6.59
2023-02-20T08:10:42.242Z,6.43
2023-02-20T08:13:09.771Z,6.49
2023-02-20T08:18:44.009Z,6.45
2023-02-20T08:24:18.192Z,6.60
2023-02-20T08:26:46.113Z,6.56
2023-02-20T08:29:13.757Z,6.51
2023-02-20T08:31:41.408Z,6.62
2023-02-20T08:37:09.674Z,6.71
2023-02-20T08:39:38.518Z,6.65
2023-02-20T08:44:46.933Z,7.02
2023-02-20T08:47:14.477Z,7.08
2023-02-20T08:49:41.889Z,6.84
2023-02-20T08:52:09.302Z,6.92
2023-02-20T08:54:38.286Z,6.99
2023-02-20T08:57:05.788Z,7.13
2023-02-20T09:02:33.368Z,6.88
2023-02-20T09:05:00.832Z,7.09
2023-02-20T09:07:28.386Z,7.10
2023-02-20T09:09:57.193Z,7.03
2023-02-20T09:12:24.698Z,7.07
2023-02-20T09:17:54.645Z,7.20
2023-02-20T09:20:23.195Z,7.14
2023-02-20T09:22:51.699Z,7.08
2023-02-20T09:25:20.591Z,7.22
2023-02-20T09:27:48.013Z,7.29
2023-02-20T09:30:19.545Z,7.31
2023-02-20T09:32:47.441Z,7.31
2023-02-20T09:35:17.658Z,7.38
2023-02-20T09:37:45.357Z,7.34
2023-02-20T09:40:13.046Z,7.68
2023-02-20T09:42:51.842Z,7.72
2023-02-20T09:45:21.119Z,7.74
2023-02-20T09:50:50.911Z,7.77
2023-02-20T09:53:23.198Z,7.69
2023-02-20T09:55:51.607Z,7.86
2023-02-20T09:58:24.143Z,7.97
2023-02-20T10:00:52.276Z,7.86
2023-02-20T10:03:24.057Z,7.90
2023-02-20T10:08:50.695Z,7.89
2023-02-20T10:11:40.363Z,7.83
2023-02-20T10:14:29.233Z,7.89
2023-02-20T10:17:01.160Z,7.72
2023-02-20T10:19:35.312Z,7.64
2023-02-20T10:22:05.739Z,7.80
2023-02-20T10:27:49.234Z,8.20
2023-02-20T10:30:24.145Z,8.06
2023-02-20T10:32:54.398Z,8.26
2023-02-20T10:35:25.158Z,8.38
2023-02-20T10:37:55.488Z,8.14
2023-02-20T10:40:25.557Z,7.70
2023-02-20T10:42:56.518Z,7.84
2023-02-20T10:45:31.234Z,8.00
2023-02-20T10:48:03.323Z,8.04
2023-02-20T10:50:36.156Z,8.19
2023-02-20T10:55:57.636Z,8.00
2023-02-20T10:58:32.795Z,7.78
2023-02-20T11:01:03.212Z,7.67
2023-02-20T11:03:37.851Z,7.69
2023-02-20T11:08:53.393Z,8.02
2023-02-20T11:11:24.758Z,7.91
2023-02-20T11:13:52.293Z,7.90
2023-02-20T11:16:25.290Z,7.86
2023-02-20T11:19:03.801Z,7.79
2023-02-20T11:21:36.372Z,7.70
2023-02-20T11:27:11.681Z,7.68
2023-02-20T11:29:42.220Z,7.83
2023-02-20T11:32:26.068Z,7.74
2023-02-20T11:35:29.698Z,7.88
2023-02-20T11:38:20.483Z,7.94
2023-02-20T11:40:49.830Z,7.80
2023-02-20T11:46:09.789Z,7.72
2023-02-20T11:48:40.440Z,7.66
2023-02-20T11:51:34.682Z,7.73
2023-02-20T11:54:10.347Z,7.89
2023-02-20T11:56:37.889Z,8.11
2023-02-20T11:59:27.718Z,8.13
2023-02-20T12:04:35.359Z,8.20
2023-02-20T12:07:19.262Z,8.03
2023-02-20T12:12:45.116Z,8.04
2023-02-20T12:15:14.430Z,7.95
2023-02-20T12:17:52.836Z,8.04
2023-02-20T12:20:23.566Z,8.00
2023-02-20T12:23:00.221Z,8.09
2023-02-20T12:25:56.934Z,8.26
2023-02-20T12:28:31.070Z,8.29
2023-02-20T12:34:10.205Z,8.15
2023-02-20T12:36:41.003Z,8.15
2023-02-20T12:39:18.445Z,8.03
2023-02-20T12:41:51.402Z,7.85
2023-02-20T12:44:28.504Z,8.01
2023-02-20T12:47:00.931Z,8.04
2023-02-20T12:49:50.526Z,8.07
2023-02-20T12:52:34.447Z,8.13
2023-02-20T12:55:08.321Z,8.07
2023-02-20T12:58:07.347Z,8.15
2023-02-20T13:00:39.884Z,8.20
2023-02-20T13:03:11.132Z,8.18
2023-02-20T13:05:39.370Z,8.12
2023-02-20T13:08:11.038Z,8.20
2023-02-20T13:10:48.052Z,8.32
2023-02-20T13:13:16.698Z,8.15
2023-02-20T13:18:49.463Z,8.25
2023-02-20T13:21:21.125Z,8.22
2023-02-20T13:23:52.944Z,8.47
2023-02-20T13:26:49.499Z,8.23
2023-02-20T13:29:18.167Z,8.18
2023-02-20T13:31:48.358Z,8.10
2023-02-20T13:37:56.158Z,8.19
2023-02-20T13:40:45.130Z,8.22
2023-02-20T13:43:30.479Z,8.46
2023-02-20T13:49:08.784Z,8.25
2023-02-20T13:51:37.971Z,8.40
2023-02-20T13:54:31.480Z,8.30
2023-02-20T13:57:13.501Z,8.19
2023-02-20T13:59:41.090Z,8.36
2023-02-20T14:02:17.382Z,8.26
2023-02-20T14:05:08.789Z,8.31
2023-02-20T14:07:39.230Z,8.24
2023-02-20T14:10:10.012Z,8.33
2023-02-20T14:12:40.162Z,8.27
2023-02-20T14:15:09.201Z,8.27
2023-02-20T14:17:39.453Z,8.33
2023-02-20T14:20:14.823Z,8.33
2023-02-20T14:22:42.669Z,8.44
2023-02-20T14:25:27.191Z,8.48
2023-02-20T14:28:08.154Z,8.33
2023-02-20T14:30:35.639Z,8.47
2023-02-20T14:33:04.073Z,8.57
2023-02-20T14:38:59.832Z,8.58
2023-02-20T14:41:27.368Z,8.30
2023-02-20T14:43:57.422Z,8.31
2023-02-20T14:49:15.174Z,8.35
2023-02-20T14:51:42.974Z,8.46
2023-02-20T14:57:14.431Z,8.18
2023-02-20T14:59:43.830Z,8.14
2023-02-20T15:02:31.280Z,8.18
2023-02-20T15:05:03.847Z,8.22
2023-02-20T15:07:31.675Z,8.07
2023-02-20T15:10:00.474Z,8.14
2023-02-20T15:12:30.213Z,8.20
2023-02-20T15:18:09.542Z,8.15
2023-02-20T15:20:38.556Z,8.10
2023-02-20T15:23:15.690Z,8.30
2023-02-20T15:28:46.075Z,8.03
2023-02-20T15:31:23.226Z,7.97
2023-02-20T15:33:55.745Z,7.95
2023-02-20T15:36:25.219Z,8.11
2023-02-20T15:44:27.392Z,7.96
2023-02-20T15:49:58.515Z,7.88
2023-02-20T15:52:29.071Z,8.05
2023-02-20T15:54:57.050Z,7.72
2023-02-20T15:57:24.813Z,7.67
2023-02-20T15:59:54.435Z,7.73
2023-02-20T16:02:24.220Z,7.54
2023-02-20T16:04:52.685Z,7.64
2023-02-20T16:07:22.258Z,7.64
2023-02-20T16:09:49.874Z,7.61
2023-02-20T16:12:18.945Z,7.66
2023-02-20T16:17:36.184Z,7.70
2023-02-20T16:20:14.854Z,7.62
2023-02-20T16:22:43.631Z,7.81
2023-02-20T16:28:08.300Z,7.79
2023-02-20T16:30:38.672Z,7.76
2023-02-20T16:33:13.235Z,7.88
2023-02-20T16:35:40.816Z,7.89
2023-02-20T16:38:09.575Z,7.94
2023-02-20T16:40:37.483Z,7.83
2023-02-20T16:43:05.460Z,7.83
2023-02-20T16:45:33.560Z,7.75
2023-02-20T16:48:01.036Z,7.65
2023-02-20T16:50:30.058Z,7.73
2023-02-20T16:52:58.424Z,7.77
2023-02-20T16:55:28.889Z,7.61
2023-02-20T16:57:56.527Z,7.62
2023-02-20T17:00:26.238Z,7.71
2023-02-20T17:02:54.595Z,7.78
2023-02-20T17:05:23.661Z,7.87
2023-02-20T17:10:41.735Z,7.62
2023-02-20T17:13:09.158Z,7.71
2023-02-20T17:15:37.763Z,7.68
2023-02-20T17:18:05.750Z,7.65
2023-02-20T17:20:33.226Z,7.69
2023-02-20T17:23:05.460Z,7.62
2023-02-20T17:25:34.434Z,7.80
2023-02-20T17:28:04.024Z,7.70
2023-02-20T17:30:31.581Z,7.67
2023-02-20T17:32:59.142Z,7.74
2023-02-20T17:35:26.583Z,7.73
2023-02-20T17:37:53.992Z,7.71
2023-02-20T17:40:21.407Z,7.77
2023-02-20T17:42:48.855Z,7.97
2023-02-20T17:45:17.896Z,7.85
2023-02-20T17:50:49.375Z,7.73
2023-02-20T17:56:19.386Z,7.75
2023-02-20T17:58:47.238Z,7.74
2023-02-20T18:01:16.095Z,7.75
2023-02-20T18:03:43.717Z,7.69
2023-02-20T18:06:11.563Z,7.84
2023-02-20T18:08:39.099Z,7.83
2023-02-20T18:11:06.545Z,7.85
2023-02-20T18:13:33.943Z,7.84
2023-02-20T18:16:01.865Z,7.91
2023-02-20T18:18:30.712Z,7.85
2023-02-20T18:21:24.182Z,7.78
2023-02-20T18:23:51.949Z,7.80
2023-02-20T18:26:19.526Z,7.62
2023-02-20T18:28:47.435Z,7.64
2023-02-20T18:33:56.972Z,7.76
2023-02-20T18:39:24.432Z,7.78
2023-02-20T18:41:52.454Z,7.93
2023-02-20T18:44:20.294Z,7.88
2023-02-20T18:46:47.763Z,7.84
2023-02-20T18:52:05.760Z,7.84
2023-02-20T18:54:33.514Z,7.77
2023-02-20T18:57:01.631Z,7.87
2023-02-20T18:59:30.687Z,7.94
2023-02-20T19:01:58.899Z,8.05
2023-02-20T19:06:57.139Z,7.70
2023-02-20T19:09:26.127Z,7.82
2023-02-20T19:11:55.296Z,7.79
2023-02-20T19:14:23.605Z,7.78
2023-02-20T19:16:51.856Z,7.97
2023-02-20T19:19:23.876Z,7.81
2023-02-20T19:24:41.397Z,7.84
2023-02-20T19:27:10.776Z,7.90
2023-02-20T19:29:40.615Z,7.94
2023-02-20T19:32:09.751Z,7.93
2023-02-20T19:37:26.054Z,7.97
2023-02-20T19:39:54.786Z,7.88
2023-02-20T19:42:22.287Z,8.03
2023-02-20T19:44:49.992Z,7.80
2023-02-20T19:50:13.302Z,7.96
2023-02-20T19:52:42.026Z,7.91
2023-02-20T19:55:11.531Z,7.93
2023-02-20T19:57:38.969Z,8.10
2023-02-20T20:03:09.096Z,7.93
2023-02-20T20:05:36.604Z,7.94
2023-02-20T20:08:05.305Z,8.00
2023-02-20T20:13:38.388Z,7.99
2023-02-20T20:16:06.474Z,8.03
2023-02-20T20:18:33.919Z,7.95
2023-02-20T20:21:01.372Z,7.89
2023-02-20T20:23:29.245Z,7.90
2023-02-20T20:25:56.761Z,7.78
2023-02-20T20:28:28.055Z,7.73
2023-02-20T20:30:56.849Z,7.96
2023-02-20T20:36:22.179Z,8.05
2023-02-20T20:38:49.669Z,8.03
2023-02-20T20:41:17.123Z,8.05
2023-02-20T20:43:45.409Z,8.16
2023-02-20T20:46:14.796Z,8.01
2023-02-20T20:48:42.229Z,8.02
2023-02-20T20:51:12.603Z,8.00
2023-02-20T20:53:40.194Z,7.90
2023-02-20T20:59:04.505Z,8.08
2023-02-20T21:01:33.265Z,8.10
2023-02-20T21:06:59.078Z,7.97
2023-02-20T21:09:26.517Z,7.95
2023-02-20T21:11:54.247Z,8.23
2023-02-20T21:17:25.724Z,8.02
2023-02-20T21:19:53.174Z,8.12
2023-02-20T21:22:20.719Z,8.03
2023-02-20T21:24:48.165Z,8.00
2023-02-20T21:27:15.673Z,8.04
2023-02-20T21:29:43.096Z,8.11
2023-02-20T21:32:10.545Z,8.08
2023-02-20T21:37:36.424Z,8.08
2023-02-20T21:40:04.041Z,8.18
2023-02-20T21:42:49.091Z,8.06
2023-02-20T21:45:16.583Z,8.10
2023-02-20T21:47:44.006Z,8.16
2023-02-20T21:50:11.491Z,8.00
2023-02-20T21:52:40.443Z,8.10
2023-02-20T21:55:12.500Z,8.08
2023-02-20T22:00:27.220Z,8.05
2023-02-20T22:02:53.822Z,8.26
2023-02-20T22:05:20.575Z,8.26
2023-02-20T22:08:07.141Z,8.26
2023-02-20T22:10:52.358Z,8.22
2023-02-20T22:13:37.247Z,8.24
2023-02-20T22:16:24.506Z,8.21
2023-02-20T22:19:09.449Z,8.16
2023-02-20T22:21:54.546Z,8.11
2023-02-20T22:24:40.779Z,8.04
2023-02-20T22:27:27.634Z,8.06
2023-02-20T22:30:12.984Z,8.09
2023-02-20T22:32:58.211Z,8.14
2023-02-20T22:35:43.417Z,8.22
2023-02-20T22:38:28.514Z,8.25
2023-02-20T22:44:03.288Z,8.08
2023-02-20T22:46:48.524Z,8.19
2023-02-20T22:49:33.831Z,8.22
2023-02-20T22:52:18.632Z,8.24
2023-02-20T22:55:05.814Z,8.29
2023-02-20T22:57:51.485Z,8.24
2023-02-20T23:00:38.633Z,8.19
2023-02-20T23:03:24.071Z,8.14
2023-02-20T23:06:18.429Z,8.19
2023-02-20T23:09:04.162Z,8.23
2023-02-20T23:11:51.386Z,8.22
2023-02-20T23:14:36.629Z,8.19
2023-02-20T23:17:34.916Z,8.12
2023-02-20T23:20:21.262Z,8.37
2023-02-20T23:23:06.570Z,8.19
2023-02-20T23:25:54.140Z,8.25
2023-02-20T23:28:39.253Z,8.14
2023-02-20T23:31:24.873Z,8.23
2023-02-20T23:34:11.187Z,8.34
2023-02-20T23:36:56.199Z,8.25
2023-02-20T23:39:39.760Z,8.16
2023-02-20T23:42:24.738Z,8.23
2023-02-20T23:45:10.447Z,8.24
2023-02-20T23:50:45.064Z,8.27
2023-02-20T23:53:29.996Z,8.23
2023-02-20T23:56:15.128Z,8.23
2023-02-20T23:59:00.101Z,8.25
